Time;durP1;ratioP1;P1;durP2;ratioP2;P2;SDS_P1;SDS_P2;PMS_P1;PMS_P2;Temp;Humidity;BMP_temperature;BMP_pressure;BME280_temperature;BME280_humidity;BME280_pressure;Samples;Min_cycle;Max_cycle;Signal;HPM_P1;HPM_P2
2023/09/02 00:00:31;;;;;;;5.37;4.87;;;11.90;99.90;;;;;;5030823;28;20192;-48
2023/09/02 00:02:58;;;;;;;4.50;4.20;;;11.90;99.90;;;;;;5035818;28;20661;-52
2023/09/02 00:05:25;;;;;;;6.20;4.60;;;11.80;99.90;;;;;;5027117;28;20212;-58
2023/09/02 00:07:52;;;;;;;5.57;4.30;;;11.70;99.90;;;;;;5027517;28;20199;-46
2023/09/02 00:10:19;;;;;;;6.60;4.13;;;11.70;99.90;;;;;;5008285;28;21404;-58
2023/09/02 00:12:47;;;;;;;5.13;4.73;;;11.70;99.90;;;;;;5021997;28;20897;-48
2023/09/02 00:15:14;;;;;;;4.43;4.07;;;11.70;99.90;;;;;;5027097;28;20341;-57
2023/09/02 00:17:41;;;;;;;5.20;4.77;;;11.80;99.90;;;;;;5033626;28;20238;-48
2023/09/02 00:20:08;;;;;;;4.40;4.00;;;11.70;99.90;;;;;;5030716;28;20249;-46
2023/09/02 00:22:35;;;;;;;5.17;4.53;;;11.70;99.90;;;;;;5031741;28;20188;-50
2023/09/02 00:25:02;;;;;;;5.13;4.57;;;11.60;99.90;;;;;;5011286;28;20269;-53
2023/09/02 00:27:29;;;;;;;5.17;4.70;;;11.50;99.90;;;;;;5025192;28;20198;-51
2023/09/02 00:29:57;;;;;;;4.77;4.37;;;11.50;99.90;;;;;;5030694;28;20187;-52
2023/09/02 00:32:24;;;;;;;4.93;4.53;;;11.50;99.90;;;;;;5033938;28;20211;-57
2023/09/02 00:34:51;;;;;;;4.63;4.20;;;11.60;99.90;;;;;;5033448;28;20215;-50
2023/09/02 00:37:18;;;;;;;10.87;4.50;;;11.60;99.90;;;;;;5028606;28;21610;-58
2023/09/02 00:39:45;;;;;;;5.10;4.47;;;11.50;99.90;;;;;;5033956;28;20183;-48
2023/09/02 00:42:13;;;;;;;4.70;4.23;;;11.50;99.90;;;;;;5007198;28;20211;-60
2023/09/02 00:44:41;;;;;;;5.50;4.13;;;11.50;99.90;;;;;;5015749;28;21024;-48
2023/09/02 00:47:09;;;;;;;8.53;4.40;;;11.40;99.90;;;;;;5023236;28;20188;-53
2023/09/02 00:49:36;;;;;;;5.87;4.43;;;11.40;99.90;;;;;;5036446;28;20190;-46
2023/09/02 00:52:03;;;;;;;6.53;5.20;;;11.40;99.90;;;;;;5033464;28;20333;-48
2023/09/02 00:54:31;;;;;;;5.37;4.87;;;11.40;99.90;;;;;;5034499;28;20201;-47
2023/09/02 00:56:58;;;;;;;7.50;4.13;;;11.40;99.90;;;;;;5013244;28;20220;-48
2023/09/02 00:59:25;;;;;;;5.63;4.27;;;11.30;99.90;;;;;;5016907;28;20291;-59
2023/09/02 01:01:56;;;;;;;4.77;4.40;;;11.40;99.90;;;;;;5028752;28;20667;-51
2023/09/02 01:04:24;;;;;;;5.40;4.90;;;11.40;99.90;;;;;;5025682;28;20203;-59
2023/09/02 01:06:51;;;;;;;6.17;4.13;;;11.40;99.90;;;;;;5031434;28;20194;-46
2023/09/02 01:09:19;;;;;;;4.23;3.83;;;11.40;99.90;;;;;;5032798;28;20200;-60
2023/09/02 01:11:46;;;;;;;6.47;4.37;;;11.40;99.90;;;;;;5012382;28;20334;-53
2023/09/02 01:14:14;;;;;;;7.13;4.43;;;11.40;99.90;;;;;;5022307;28;20204;-59
2023/09/02 01:16:41;;;;;;;4.90;4.50;;;11.40;99.90;;;;;;5028557;28;20212;-46
2023/09/02 01:19:12;;;;;;;5.27;4.70;;;11.40;99.90;;;;;;5033528;28;20212;-55
2023/09/02 01:22:03;;;;;;;5.67;4.77;;;11.30;99.90;;;;;;5018835;28;21288;-49
2023/09/02 01:24:55;;;;;;;5.40;4.90;;;11.30;99.90;;;;;;5010349;28;20226;-55
2023/09/02 01:27:28;;;;;;;6.73;5.07;;;11.20;99.90;;;;;;5010956;28;20200;-58
2023/09/02 01:30:00;;;;;;;6.57;4.30;;;11.20;99.90;;;;;;5026272;28;20199;-50
2023/09/02 01:32:32;;;;;;;5.20;4.73;;;11.10;99.90;;;;;;5031506;28;20203;-57
2023/09/02 01:35:04;;;;;;;4.63;4.23;;;11.10;99.90;;;;;;5022566;28;20216;-51
2023/09/02 01:37:33;;;;;;;5.57;4.50;;;11.10;99.90;;;;;;5027876;28;20220;-50
2023/09/02 01:40:03;;;;;;;6.10;4.57;;;11.10;99.90;;;;;;5038731;28;20242;-53
2023/09/02 01:42:34;;;;;;;6.10;4.53;;;11.10;99.90;;;;;;5018228;28;20203;-55
2023/09/02 01:45:01;;;;;;;5.13;4.47;;;11.10;99.90;;;;;;5026008;28;20264;-59
2023/09/02 01:47:29;;;;;;;4.90;4.37;;;11.00;99.90;;;;;;5030890;28;20192;-53
2023/09/02 01:49:56;;;;;;;5.63;4.40;;;10.90;99.90;;;;;;5037217;28;20228;-50
2023/09/02 01:52:24;;;;;;;7.10;4.10;;;10.90;99.90;;;;;;5030795;28;20192;-59
2023/09/02 01:54:51;;;;;;;5.50;4.30;;;11.00;99.90;;;;;;5030618;28;20289;-53
2023/09/02 01:57:19;;;;;;;5.27;4.30;;;11.00;99.90;;;;;;5021179;28;20322;-59
2023/09/02 01:59:47;;;;;;;4.83;4.33;;;11.10;99.90;;;;;;5015763;28;20204;-54
2023/09/02 02:02:16;;;;;;;5.87;4.67;;;11.20;99.90;;;;;;5022116;28;20207;-56
2023/09/02 02:04:50;;;;;;;6.90;4.17;;;11.20;99.90;;;;;;5022021;28;20346;-53
2023/09/02 02:07:19;;;;;;;8.10;5.00;;;11.20;99.90;;;;;;5029045;28;20191;-58
2023/09/02 02:09:49;;;;;;;8.10;4.53;;;11.30;99.90;;;;;;5031662;28;20188;-50
2023/09/02 02:12:17;;;;;;;5.13;4.63;;;11.20;99.90;;;;;;5019168;28;20192;-59
2023/09/02 02:14:47;;;;;;;5.47;4.27;;;11.10;99.90;;;;;;5015111;28;20220;-50
2023/09/02 02:17:14;;;;;;;6.23;4.50;;;11.10;99.90;;;;;;5027692;28;20338;-56
2023/09/02 02:19:42;;;;;;;5.07;4.40;;;11.00;99.90;;;;;;5028466;28;20254;-51
2023/09/02 02:22:09;;;;;;;5.10;4.60;;;11.00;99.90;;;;;;5031688;28;20811;-56
2023/09/02 02:24:36;;;;;;;5.90;4.30;;;10.90;99.90;;;;;;5025762;28;20291;-48
2023/09/02 02:27:03;;;;;;;4.80;4.40;;;10.80;99.90;;;;;;5032319;28;20553;-49
2023/09/02 02:29:30;;;;;;;5.43;4.50;;;10.90;99.90;;;;;;5002601;28;20209;-54
2023/09/02 02:31:58;;;;;;;4.30;3.90;;;10.80;99.90;;;;;;5032253;28;20202;-48
2023/09/02 02:34:25;;;;;;;6.57;4.40;;;10.80;99.90;;;;;;5028093;28;20195;-57
2023/09/02 02:36:51;;;;;;;4.53;4.13;;;10.70;99.90;;;;;;5031178;28;20823;-49
2023/09/02 02:39:18;;;;;;;4.47;4.07;;;10.70;99.90;;;;;;5024545;28;20207;-56
2023/09/02 02:41:45;;;;;;;4.63;3.90;;;10.60;99.90;;;;;;5030871;28;20267;-47
2023/09/02 02:44:12;;;;;;;4.80;4.30;;;10.60;99.90;;;;;;5008830;28;20206;-56
2023/09/02 02:46:39;;;;;;;4.20;3.80;;;10.50;99.90;;;;;;5020182;28;20227;-46
2023/09/02 02:49:08;;;;;;;5.20;4.13;;;10.50;99.90;;;;;;5034603;28;20192;-53
2023/09/02 02:51:35;;;;;;;5.50;4.13;;;10.40;99.90;;;;;;5025174;28;20212;-52
2023/09/02 02:54:01;;;;;;;5.40;4.73;;;10.40;99.90;;;;;;5030079;28;20212;-51
2023/09/02 02:56:28;;;;;;;5.70;4.73;;;10.40;99.90;;;;;;5024530;28;20285;-54
2023/09/02 02:58:55;;;;;;;6.07;4.23;;;10.50;99.90;;;;;;5007528;28;20216;-51
2023/09/02 03:01:23;;;;;;;6.60;4.70;;;10.60;99.90;;;;;;5019170;28;20215;-55
2023/09/02 03:03:50;;;;;;;6.10;4.70;;;10.60;99.90;;;;;;5026283;28;20291;-57
2023/09/02 03:06:19;;;;;;;6.73;5.23;;;10.70;99.90;;;;;;5030165;28;20749;-51
2023/09/02 03:08:46;;;;;;;5.53;4.50;;;10.80;99.90;;;;;;5026760;28;20278;-58
2023/09/02 03:11:13;;;;;;;6.20;5.17;;;10.90;99.90;;;;;;5026656;28;20199;-57
2023/09/02 03:13:40;;;;;;;5.93;4.40;;;10.80;99.90;;;;;;5028248;28;20219;-57
2023/09/02 03:16:15;;;;;;;5.77;4.77;;;10.80;99.90;;;;;;5003297;28;20222;-47
2023/09/02 03:18:42;;;;;;;7.03;5.20;;;10.70;99.90;;;;;;5021046;28;20663;-58
2023/09/02 03:21:10;;;;;;;6.57;5.43;;;10.70;99.90;;;;;;5021650;28;20180;-50
2023/09/02 03:23:38;;;;;;;5.67;5.00;;;10.80;99.90;;;;;;5027884;28;20208;-59
2023/09/02 03:26:12;;;;;;;5.97;5.37;;;10.80;99.90;;;;;;5026765;28;20220;-52
2023/09/02 03:28:42;;;;;;;7.73;5.40;;;10.80;99.90;;;;;;5025807;28;20218;-59
2023/09/02 03:31:11;;;;;;;6.70;5.17;;;10.80;99.90;;;;;;5006515;28;20288;-52
2023/09/02 03:33:41;;;;;;;8.60;5.37;;;10.90;99.90;;;;;;5003739;28;20287;-54
2023/09/02 03:36:16;;;;;;;6.47;4.97;;;10.90;99.90;;;;;;5024103;28;20709;-55
2023/09/02 03:38:44;;;;;;;7.23;4.83;;;10.90;99.90;;;;;;5021512;28;20786;-51
2023/09/02 03:41:12;;;;;;;7.13;5.47;;;10.80;99.90;;;;;;5024689;28;20626;-50
2023/09/02 03:43:39;;;;;;;7.40;4.90;;;10.70;99.90;;;;;;5020902;28;20188;-51
2023/09/02 03:46:06;;;;;;;7.93;5.73;;;10.70;99.90;;;;;;5015047;28;20215;-54
2023/09/02 03:48:32;;;;;;;7.23;5.00;;;10.60;99.90;;;;;;5016734;28;20192;-55
2023/09/02 03:51:01;;;;;;;6.53;4.90;;;10.60;99.90;;;;;;5031298;28;20199;-52
2023/09/02 03:53:28;;;;;;;5.97;5.30;;;10.50;99.90;;;;;;5029494;28;20196;-54
2023/09/02 03:55:57;;;;;;;8.97;5.43;;;10.50;99.90;;;;;;5028715;28;20263;-58
2023/09/02 03:58:24;;;;;;;7.20;5.70;;;10.50;99.90;;;;;;5031213;28;20242;-49
2023/09/02 04:00:50;;;;;;;5.73;5.17;;;10.50;99.90;;;;;;4999014;28;22019;-56
2023/09/02 04:03:19;;;;;;;5.03;4.57;;;10.50;99.90;;;;;;5018491;28;20773;-54
2023/09/02 04:05:47;;;;;;;5.47;4.97;;;10.40;99.90;;;;;;5015272;28;20301;-56
2023/09/02 04:08:16;;;;;;;5.73;4.90;;;10.30;99.90;;;;;;5016747;28;20195;-58
2023/09/02 04:10:43;;;;;;;7.10;5.47;;;10.30;99.90;;;;;;5026854;28;20188;-57
2023/09/02 04:13:11;;;;;;;5.70;4.47;;;10.30;99.90;;;;;;5028864;28;20278;-56
2023/09/02 04:15:38;;;;;;;6.33;5.30;;;10.30;99.90;;;;;;5006576;28;20230;-56
2023/09/02 04:18:05;;;;;;;5.50;4.87;;;10.30;99.90;;;;;;5030570;28;20588;-55
2023/09/02 04:20:35;;;;;;;6.23;5.13;;;10.30;99.90;;;;;;5006409;28;20275;-52
2023/09/02 04:23:04;;;;;;;4.70;4.17;;;10.20;99.90;;;;;;5016964;28;20203;-56
2023/09/02 04:25:30;;;;;;;5.20;4.70;;;10.20;99.90;;;;;;5022650;28;20215;-52
2023/09/02 04:27:57;;;;;;;7.90;5.53;;;10.10;99.90;;;;;;5018403;28;20266;-58
2023/09/02 04:30:25;;;;;;;6.10;5.30;;;10.10;99.90;;;;;;5021681;28;20813;-52
2023/09/02 04:32:53;;;;;;;6.97;6.10;;;10.10;99.90;;;;;;5009067;28;20199;-54
2023/09/02 04:35:20;;;;;;;9.97;6.30;;;10.10;99.90;;;;;;5015788;28;20223;-50
2023/09/02 04:37:47;;;;;;;10.27;7.10;;;10.00;99.90;;;;;;5012714;28;20877;-56
2023/09/02 04:40:15;;;;;;;8.70;6.60;;;10.00;99.90;;;;;;5023143;28;20291;-55
2023/09/02 04:42:42;;;;;;;10.27;7.20;;;10.00;99.90;;;;;;5013076;28;20215;-56
2023/09/02 04:45:10;;;;;;;12.90;8.00;;;10.10;99.90;;;;;;5023525;28;20298;-52
2023/09/02 04:47:39;;;;;;;10.53;7.17;;;10.20;99.90;;;;;;5001370;28;20337;-54
2023/09/02 04:50:08;;;;;;;10.27;6.53;;;10.20;99.90;;;;;;5015927;28;20219;-56
2023/09/02 04:52:35;;;;;;;11.60;6.67;;;10.30;99.90;;;;;;5015583;28;20203;-50
2023/09/02 04:55:02;;;;;;;8.53;6.40;;;10.30;99.90;;;;;;5014710;28;20211;-53
2023/09/02 04:57:31;;;;;;;8.73;6.67;;;10.30;99.90;;;;;;5030203;28;20234;-54
2023/09/02 04:59:59;;;;;;;7.73;6.90;;;10.30;99.90;;;;;;5017711;28;20200;-52
2023/09/02 05:02:25;;;;;;;9.97;7.00;;;10.20;99.90;;;;;;5009866;28;20570;-52
2023/09/02 05:04:54;;;;;;;9.30;7.03;;;10.20;99.90;;;;;;5011023;28;20218;-55
2023/09/02 05:07:21;;;;;;;12.00;7.30;;;10.20;99.90;;;;;;5018389;28;20206;-51
2023/09/02 05:09:50;;;;;;;10.70;7.80;;;10.30;99.90;;;;;;5020318;28;20200;-53
2023/09/02 05:12:18;;;;;;;8.37;6.77;;;10.30;99.90;;;;;;5024921;28;20207;-52
2023/09/02 05:14:45;;;;;;;10.37;7.43;;;10.20;99.90;;;;;;5019724;28;20301;-55
2023/09/02 05:17:12;;;;;;;10.77;7.13;;;10.20;99.90;;;;;;5024029;28;20206;-52
2023/09/02 05:19:39;;;;;;;10.83;7.63;;;10.20;99.90;;;;;;5005690;28;20299;-54
2023/09/02 05:22:09;;;;;;;11.97;7.67;;;10.20;99.90;;;;;;5020959;28;20546;-54
2023/09/02 05:24:36;;;;;;;10.13;7.60;;;10.20;99.90;;;;;;5020747;28;20192;-55
2023/09/02 05:27:03;;;;;;;10.23;8.03;;;10.30;99.90;;;;;;5017786;28;20212;-55
2023/09/02 05:29:30;;;;;;;10.13;7.93;;;10.40;99.90;;;;;;5013491;28;20201;-54
2023/09/02 05:31:56;;;;;;;9.50;6.93;;;10.50;99.90;;;;;;5022643;28;20196;-52
2023/09/02 05:34:23;;;;;;;9.37;6.70;;;10.50;99.90;;;;;;5010025;28;20235;-48
2023/09/02 05:36:50;;;;;;;11.47;7.10;;;10.60;99.90;;;;;;5018428;28;20246;-53
2023/09/02 05:39:18;;;;;;;10.90;7.07;;;10.60;99.90;;;;;;5023936;28;20242;-52
2023/09/02 05:41:45;;;;;;;10.80;7.73;;;10.70;99.90;;;;;;5018339;28;21042;-53
2023/09/02 05:44:13;;;;;;;8.07;7.00;;;10.70;99.90;;;;;;5024572;28;20202;-51
2023/09/02 05:46:40;;;;;;;9.63;6.90;;;10.80;99.90;;;;;;5019680;28;20216;-54
2023/09/02 05:49:06;;;;;;;12.30;7.13;;;10.90;99.90;;;;;;5015511;28;20199;-49
2023/09/02 05:51:33;;;;;;;7.77;6.57;;;11.00;99.90;;;;;;5016022;28;20832;-51
2023/09/02 05:54:00;;;;;;;7.77;6.60;;;11.00;99.90;;;;;;5017590;28;20630;-48
2023/09/02 05:56:28;;;;;;;8.60;6.77;;;11.10;99.90;;;;;;5013228;28;20232;-55
2023/09/02 05:58:55;;;;;;;10.50;7.30;;;11.20;99.90;;;;;;5026198;28;20220;-57
2023/09/02 06:01:22;;;;;;;11.07;7.23;;;11.20;99.90;;;;;;5014784;28;20227;-57
2023/09/02 06:03:49;;;;;;;9.10;6.87;;;11.30;99.90;;;;;;5027459;28;20249;-55
2023/09/02 06:06:16;;;;;;;10.63;7.20;;;11.40;99.90;;;;;;5010035;28;20240;-53
2023/09/02 06:08:42;;;;;;;9.30;7.03;;;11.50;99.90;;;;;;5022011;28;20265;-56
2023/09/02 06:11:09;;;;;;;13.83;8.70;;;11.60;99.90;;;;;;5018403;28;20227;-50
2023/09/02 06:13:38;;;;;;;9.13;7.47;;;11.70;99.90;;;;;;5024105;28;20202;-55
2023/09/02 06:16:06;;;;;;;8.97;7.20;;;11.90;99.90;;;;;;5026391;28;20211;-51
2023/09/02 06:18:34;;;;;;;10.10;7.50;;;12.00;99.90;;;;;;5014957;28;20446;-54
2023/09/02 06:21:08;;;;;;;11.00;8.37;;;12.10;99.90;;;;;;5006895;28;20702;-50
2023/09/02 06:23:35;;;;;;;12.40;9.00;;;12.20;99.90;;;;;;5013076;28;20210;-50
2023/09/02 06:26:02;;;;;;;7.80;6.80;;;12.30;99.90;;;;;;5029801;28;20212;-60
2023/09/02 06:28:29;;;;;;;10.80;9.03;;;12.40;99.90;;;;;;5011433;28;20222;-48
2023/09/02 06:30:57;;;;;;;11.10;8.23;;;12.50;99.90;;;;;;5027471;28;20192;-45
2023/09/02 06:33:25;;;;;;;10.83;8.07;;;12.60;99.90;;;;;;5015464;28;20196;-53
2023/09/02 06:35:52;;;;;;;12.60;8.30;;;12.70;99.90;;;;;;5030149;28;20590;-52
2023/09/02 06:38:19;;;;;;;12.83;8.50;;;12.80;99.90;;;;;;5004031;28;20316;-48
2023/09/02 06:40:47;;;;;;;11.27;8.63;;;12.90;99.90;;;;;;5017599;28;20293;-50
2023/09/02 06:43:13;;;;;;;12.33;8.03;;;13.00;99.90;;;;;;5001341;28;20208;-46
2023/09/02 06:45:40;;;;;;;12.37;8.63;;;13.10;99.90;;;;;;5021592;28;20230;-51
2023/09/02 06:48:09;;;;;;;12.93;7.67;;;13.20;99.90;;;;;;5000628;28;20223;-60
2023/09/02 06:50:36;;;;;;;7.60;6.80;;;13.30;99.90;;;;;;5011548;28;20196;-53
2023/09/02 06:53:03;;;;;;;9.70;6.90;;;13.40;99.90;;;;;;5011465;28;20670;-59
2023/09/02 06:55:29;;;;;;;9.87;6.67;;;13.50;99.90;;;;;;5027615;28;20289;-49
2023/09/02 06:57:56;;;;;;;8.23;6.47;;;13.70;99.90;;;;;;5021671;28;20209;-60
2023/09/02 07:00:23;;;;;;;7.77;6.70;;;13.80;99.90;;;;;;5024743;28;20281;-49
2023/09/02 07:02:50;;;;;;;8.23;5.87;;;13.90;99.90;;;;;;5017344;28;20214;-45
2023/09/02 07:05:18;;;;;;;6.97;6.00;;;14.00;99.90;;;;;;5011057;28;21042;-51
2023/09/02 07:07:45;;;;;;;7.70;6.10;;;14.10;99.90;;;;;;5024374;28;20274;-47
2023/09/02 07:10:12;;;;;;;7.00;5.20;;;14.20;99.90;;;;;;4987145;28;20307;-46
2023/09/02 07:12:38;;;;;;;7.83;5.27;;;14.30;99.90;;;;;;5023893;28;20192;-52
2023/09/02 07:15:06;;;;;;;8.50;5.47;;;14.40;99.90;;;;;;5008338;28;20228;-59
2023/09/02 07:17:33;;;;;;;5.60;5.07;;;14.50;99.90;;;;;;5021796;28;20215;-50
2023/09/02 07:20:00;;;;;;;8.03;5.00;;;14.60;99.90;;;;;;5002653;28;20224;-58
2023/09/02 07:22:28;;;;;;;7.30;4.87;;;14.70;99.90;;;;;;5017934;28;20227;-53
2023/09/02 07:24:55;;;;;;;7.23;5.27;;;14.80;99.90;;;;;;5003069;28;20228;-62
2023/09/02 07:27:22;;;;;;;7.97;4.80;;;14.90;99.90;;;;;;5014631;28;20231;-46
2023/09/02 07:29:49;;;;;;;5.13;4.63;;;15.10;99.90;;;;;;5019093;28;20364;-49
2023/09/02 07:32:16;;;;;;;4.00;3.63;;;15.20;99.90;;;;;;5005701;28;20888;-51
2023/09/02 07:34:43;;;;;;;6.67;4.40;;;15.30;99.90;;;;;;5015402;28;20306;-45
2023/09/02 07:37:10;;;;;;;4.17;3.83;;;15.40;99.90;;;;;;5010161;28;20254;-57
2023/09/02 07:39:38;;;;;;;4.20;3.90;;;15.50;99.90;;;;;;5022434;28;20675;-50
2023/09/02 07:42:06;;;;;;;7.63;3.70;;;15.60;99.90;;;;;;5001421;28;20626;-59
2023/09/02 07:44:33;;;;;;;4.73;3.80;;;15.70;99.90;;;;;;5020582;28;20261;-50
2023/09/02 07:47:00;;;;;;;4.90;3.57;;;15.90;99.90;;;;;;5008603;28;20200;-59
2023/09/02 07:49:27;;;;;;;3.33;3.03;;;16.00;99.90;;;;;;5018481;28;21631;-46
2023/09/02 07:51:54;;;;;;;3.40;3.20;;;16.10;99.90;;;;;;5003843;28;20278;-57
2023/09/02 07:54:21;;;;;;;3.60;2.77;;;16.20;99.90;;;;;;5020434;28;20238;-52
2023/09/02 07:56:49;;;;;;;3.10;2.40;;;16.30;99.90;;;;;;5006162;28;20215;-53
2023/09/02 07:59:15;;;;;;;3.10;2.70;;;16.30;99.90;;;;;;5020937;28;20733;-54
2023/09/02 08:01:42;;;;;;;4.17;3.37;;;16.50;99.90;;;;;;5021664;28;20798;-45
2023/09/02 08:04:10;;;;;;;3.20;3.00;;;16.50;99.90;;;;;;5022519;28;20286;-51
2023/09/02 08:06:37;;;;;;;3.63;2.80;;;16.60;99.90;;;;;;5012885;28;20259;-47
2023/09/02 08:09:04;;;;;;;3.00;2.80;;;16.70;99.90;;;;;;5022304;28;20219;-58
2023/09/02 08:11:32;;;;;;;3.50;2.87;;;16.80;99.90;;;;;;5007984;28;20223;-47
2023/09/02 08:14:00;;;;;;;3.33;2.70;;;16.90;99.90;;;;;;5023962;28;20192;-58
2023/09/02 08:16:27;;;;;;;3.33;3.03;;;17.00;99.90;;;;;;5015379;28;20224;-50
2023/09/02 08:18:54;;;;;;;3.10;2.80;;;17.10;99.90;;;;;;5024092;28;20196;-57
2023/09/02 08:21:20;;;;;;;3.00;2.60;;;17.20;99.90;;;;;;5009653;28;20650;-53
2023/09/02 08:23:47;;;;;;;3.00;2.80;;;17.20;99.90;;;;;;5023283;28;20243;-51
2023/09/02 08:26:14;;;;;;;3.43;3.10;;;17.30;99.90;;;;;;5002233;28;20228;-50
2023/09/02 08:28:41;;;;;;;2.40;2.20;;;17.40;99.90;;;;;;5023084;28;20200;-51
2023/09/02 08:31:11;;;;;;;3.80;3.20;;;17.50;99.90;;;;;;5018072;28;20195;-61
2023/09/02 08:33:38;;;;;;;3.47;2.53;;;17.60;99.90;;;;;;5018100;28;20674;-48
2023/09/02 08:36:05;;;;;;;3.37;2.97;;;17.70;99.90;;;;;;5016408;28;20270;-60
2023/09/02 08:38:33;;;;;;;2.80;2.60;;;17.80;99.90;;;;;;5016841;28;20223;-60
2023/09/02 08:41:04;;;;;;;3.10;2.90;;;17.80;99.90;;;;;;5015595;28;20285;-59
2023/09/02 08:43:32;;;;;;;3.20;3.00;;;18.00;99.90;;;;;;5015024;28;20203;-51
2023/09/02 08:46:01;;;;;;;4.20;3.80;;;18.00;99.90;;;;;;5021263;28;20301;-61
2023/09/02 08:48:33;;;;;;;3.00;2.80;;;18.00;99.90;;;;;;5013661;28;20911;-48
2023/09/02 08:51:00;;;;;;;3.03;2.70;;;18.10;99.90;;;;;;5020184;28;20192;-62
2023/09/02 08:53:30;;;;;;;3.63;3.30;;;18.10;99.90;;;;;;5006035;28;21113;-50
2023/09/02 08:56:00;;;;;;;3.73;3.43;;;18.20;99.90;;;;;;5019048;28;20278;-62
2023/09/02 08:58:28;;;;;;;3.47;3.00;;;18.20;99.90;;;;;;5012549;28;20285;-54
2023/09/02 09:00:56;;;;;;;3.20;2.90;;;18.10;99.90;;;;;;5025970;28;20302;-55
2023/09/02 09:03:24;;;;;;;4.17;3.50;;;18.20;99.90;;;;;;5019547;28;20204;-50
2023/09/02 09:05:54;;;;;;;3.13;2.70;;;18.30;99.90;;;;;;5028726;28;20292;-54
2023/09/02 09:08:21;;;;;;;3.97;2.57;;;;;;;;;;5012518;28;20195;-53
2023/09/02 09:10:49;;;;;;;2.90;2.70;;;18.50;99.90;;;;;;5023467;28;20196;-51
2023/09/02 09:13:18;;;;;;;2.20;2.00;;;18.70;99.90;;;;;;5012315;28;20814;-49
2023/09/02 09:15:47;;;;;;;2.17;1.60;;;18.80;99.90;;;;;;5030869;28;20212;-50
2023/09/02 09:18:16;;;;;;;3.10;2.23;;;19.00;99.90;;;;;;5030251;28;20200;-58
2023/09/02 09:20:43;;;;;;;2.97;2.60;;;19.10;99.90;;;;;;5021777;28;20212;-53
2023/09/02 09:23:11;;;;;;;2.33;1.93;;;19.10;99.90;;;;;;5016893;28;20199;-61
2023/09/02 09:25:38;;;;;;;1.97;1.87;;;19.10;99.90;;;;;;5018870;28;20615;-53
2023/09/02 09:28:08;;;;;;;1.80;1.60;;;19.10;99.90;;;;;;5009502;28;20285;-59
2023/09/02 09:30:35;;;;;;;1.87;1.70;;;19.10;99.90;;;;;;5029397;28;20242;-50
2023/09/02 09:33:05;;;;;;;2.33;1.80;;;19.20;99.90;;;;;;5025272;28;20196;-56
2023/09/02 09:35:32;;;;;;;1.63;1.50;;;19.20;99.90;;;;;;5022515;28;20245;-53
2023/09/02 09:37:59;;;;;;;3.03;1.40;;;19.10;99.90;;;;;;5027600;28;20543;-58
2023/09/02 09:40:32;;;;;;;1.63;1.40;;;19.10;99.90;;;;;;5016998;28;20289;-53
2023/09/02 09:43:00;;;;;;;1.03;1.00;;;19.10;99.90;;;;;;4999343;28;20232;-59
2023/09/02 09:45:27;;;;;;;0.97;0.93;;;19.10;99.90;;;;;;5025715;28;20211;-51
2023/09/02 09:47:57;;;;;;;1.27;0.80;;;19.20;99.90;;;;;;5028459;28;20694;-51
2023/09/02 09:50:24;;;;;;;1.53;1.00;;;19.20;99.90;;;;;;5018865;28;20224;-50
2023/09/02 09:53:01;;;;;;;1.40;1.10;;;19.30;99.90;;;;;;5029078;28;20200;-53
2023/09/02 09:55:29;;;;;;;1.10;0.83;;;19.40;99.90;;;;;;5014450;28;20215;-46
2023/09/02 09:57:58;;;;;;;1.00;0.90;;;19.60;99.90;;;;;;5017721;28;20880;-58
2023/09/02 10:00:25;;;;;;;0.80;0.80;;;19.70;99.90;;;;;;5013181;28;20248;-49
2023/09/02 10:02:53;;;;;;;2.27;1.53;;;19.80;99.90;;;;;;5026171;28;20292;-53
2023/09/02 10:05:27;;;;;;;1.30;1.20;;;19.80;99.90;;;;;;5015167;28;20239;-48
2023/09/02 10:08:01;;;;;;;0.90;0.90;;;20.00;99.90;;;;;;5023094;28;20199;-46
2023/09/02 10:10:30;;;;;;;0.90;0.90;;;20.00;99.90;;;;;;5013774;28;20318;-46
2023/09/02 10:13:01;;;;;;;2.93;1.00;;;19.80;99.90;;;;;;5023493;28;20666;-60
2023/09/02 10:15:28;;;;;;;2.20;1.00;;;19.70;99.90;;;;;;5018923;28;20207;-47
2023/09/02 10:17:57;;;;;;;2.03;1.10;;;19.60;99.90;;;;;;5035052;28;20269;-59
2023/09/02 10:20:27;;;;;;;2.10;0.90;;;19.50;99.90;;;;;;5021155;28;20230;-52
2023/09/02 10:22:54;;;;;;;0.90;0.90;;;19.60;99.90;;;;;;5032427;28;20224;-48
2023/09/02 10:25:25;;;;;;;0.93;0.80;;;19.70;99.90;;;;;;5027814;28;20317;-53
2023/09/02 10:28:03;;;;;;;1.13;0.83;;;19.80;99.90;;;;;;5020429;28;20200;-48
2023/09/02 10:30:42;;;;;;;1.10;0.90;;;20.00;99.90;;;;;;5020802;28;20180;-53
2023/09/02 10:33:15;;;;;;;1.33;0.73;;;20.10;99.90;;;;;;5028156;28;20200;-59
2023/09/02 10:35:44;;;;;;;0.87;0.80;;;20.20;99.90;;;;;;5028992;28;20219;-49
2023/09/02 10:38:16;;;;;;;2.73;1.00;;;20.30;99.90;;;;;;5016347;28;20218;-59
2023/09/02 10:40:49;;;;;;;2.03;0.87;;;20.30;99.90;;;;;;5026708;28;20686;-51
2023/09/02 10:43:17;;;;;;;1.40;0.90;;;20.50;99.90;;;;;;5011845;28;20928;-55
2023/09/02 10:45:45;;;;;;;1.20;0.70;;;20.40;99.90;;;;;;5008314;28;20294;-47
2023/09/02 10:48:13;;;;;;;1.17;1.00;;;20.40;99.90;;;;;;5022007;28;20200;-58
2023/09/02 10:50:40;;;;;;;1.50;0.77;;;20.50;99.90;;;;;;5024547;28;20670;-53
2023/09/02 10:53:06;;;;;;;0.67;0.67;;;20.60;99.90;;;;;;5015684;28;20246;-59
2023/09/02 10:55:33;;;;;;;1.27;0.80;;;20.80;99.90;;;;;;5024329;28;20236;-52
2023/09/02 10:58:00;;;;;;;2.93;0.93;;;20.90;99.90;;;;;;5015247;28;20663;-60
2023/09/02 11:00:29;;;;;;;0.80;0.80;;;21.00;99.90;;;;;;5006981;28;20220;-45
2023/09/02 11:02:57;;;;;;;0.87;0.73;;;21.10;99.90;;;;;;5022571;28;20816;-52
2023/09/02 11:05:25;;;;;;;0.93;0.80;;;21.20;99.90;;;;;;5029711;28;20251;-53
2023/09/02 11:07:53;;;;;;;0.80;0.80;;;21.30;99.90;;;;;;5018401;28;20184;-55
2023/09/02 11:10:21;;;;;;;2.07;1.00;;;21.40;99.90;;;;;;5031983;28;20195;-53
2023/09/02 11:13:08;;;;;;;1.40;1.00;;;21.40;99.90;;;;;;5024119;28;20203;-61
2023/09/02 11:15:36;;;;;;;1.63;1.27;;;21.40;99.90;;;;;;5018556;28;20211;-58
2023/09/02 11:18:31;;;;;;;1.17;1.05;;;21.30;99.90;;;;;;5022726;28;20192;-47
2023/09/02 11:20:59;;;;;;;1.20;1.10;;;21.30;99.90;;;;;;5032782;28;20285;-52
2023/09/02 11:23:25;;;;;;;1.60;1.00;;;21.30;99.90;;;;;;5025271;28;20231;-48
2023/09/02 11:26:04;;;;;;;2.95;1.30;;;21.30;99.90;;;;;;5027727;28;20977;-49
2023/09/02 11:28:31;;;;;;;1.27;1.20;;;21.40;99.90;;;;;;5020166;28;20671;-57
2023/09/02 11:31:09;;;;;;;2.30;1.10;;;21.30;99.90;;;;;;5025656;28;20207;-49
2023/09/02 11:33:37;;;;;;;1.00;0.90;;;21.30;99.90;;;;;;5005465;28;20610;-60
2023/09/02 11:36:06;;;;;;;0.85;0.80;;;21.10;99.90;;;;;;5029405;28;20243;-50
2023/09/02 11:38:33;;;;;;;2.22;0.90;;;21.10;99.90;;;;;;5021145;28;20211;-54
2023/09/02 11:41:01;;;;;;;0.93;0.93;;;21.00;99.90;;;;;;5023664;28;20208;-52
2023/09/02 11:43:30;;;;;;;1.00;1.00;;;20.80;99.90;;;;;;5017920;28;20287;-48
2023/09/02 11:45:58;;;;;;;1.00;0.90;;;20.70;99.90;;;;;;5022795;28;20998;-51
2023/09/02 11:48:27;;;;;;;1.45;1.10;;;20.70;99.90;;;;;;5014676;28;20244;-52
2023/09/02 11:50:57;;;;;;;1.40;1.30;;;20.70;99.90;;;;;;5018212;28;20258;-51
2023/09/02 11:53:25;;;;;;;1.98;1.13;;;20.70;99.90;;;;;;5027600;28;20188;-47
2023/09/02 11:55:51;;;;;;;2.43;1.60;;;20.90;99.90;;;;;;5013673;28;20247;-50
2023/09/02 11:58:19;;;;;;;3.30;1.00;;;21.00;99.90;;;;;;5025560;28;20308;-49
2023/09/02 12:00:46;;;;;;;1.27;1.02;;;21.10;99.90;;;;;;5010722;28;20239;-58
2023/09/02 12:03:15;;;;;;;1.42;1.15;;;21.10;99.90;;;;;;5006072;28;20212;-46
2023/09/02 12:05:49;;;;;;;0.77;0.77;;;21.10;99.90;;;;;;5021292;28;20220;-58
2023/09/02 12:08:17;;;;;;;1.95;0.77;;;21.20;99.90;;;;;;5023680;28;20261;-47
2023/09/02 12:10:45;;;;;;;1.73;0.90;;;21.20;99.90;;;;;;5024507;28;20196;-59
2023/09/02 12:13:12;;;;;;;2.22;0.90;;;21.20;99.90;;;;;;5035204;28;20803;-49
2023/09/02 12:15:40;;;;;;;1.10;0.90;;;21.20;99.90;;;;;;5013472;28;20317;-60
2023/09/02 12:18:07;;;;;;;0.85;0.85;;;21.30;99.90;;;;;;5033049;28;20880;-49
2023/09/02 12:20:34;;;;;;;0.93;0.93;;;21.50;99.90;;;;;;5002487;28;20731;-60
2023/09/02 12:23:02;;;;;;;2.58;1.30;;;21.70;99.90;;;;;;5026888;28;20235;-50
2023/09/02 12:25:29;;;;;;;1.52;0.98;;;21.70;99.90;;;;;;5023047;28;20262;-48
2023/09/02 12:28:10;;;;;;;0.87;0.70;;;21.70;99.90;;;;;;5029125;28;20179;-52
2023/09/02 12:30:37;;;;;;;1.98;1.00;;;21.80;99.90;;;;;;5018664;28;20208;-56
2023/09/02 12:33:05;;;;;;;1.17;0.88;;;22.00;99.90;;;;;;5028187;28;20357;-51
2023/09/02 12:35:32;;;;;;;1.00;1.00;;;22.00;99.90;;;;;;5008302;28;20223;-53
2023/09/02 12:38:04;;;;;;;1.00;0.90;;;22.00;99.90;;;;;;5024010;28;20191;-51
2023/09/02 12:40:31;;;;;;;2.15;0.90;;;22.00;99.90;;;;;;5033193;28;20259;-55
2023/09/02 12:42:59;;;;;;;0.77;0.70;;;22.10;99.90;;;;;;5017003;28;20187;-51
2023/09/02 12:45:30;;;;;;;1.15;1.00;;;22.20;99.90;;;;;;5018595;28;20226;-49
2023/09/02 12:47:59;;;;;;;1.00;0.80;;;22.10;99.90;;;;;;5023726;28;20248;-54
2023/09/02 12:50:28;;;;;;;1.10;1.00;;;22.00;99.90;;;;;;5035693;28;20206;-57